Time;durP1;ratioP1;P1;durP2;ratioP2;P2;SDS_P1;SDS_P2;PMS_P1;PMS_P2;Temp;Humidity;BMP_temperature;BMP_pressure;BME280_temperature;BME280_humidity;BME280_pressure;Samples;Min_cycle;Max_cycle;Signal;HPM_P1;HPM_P2
2023/08/30 00:00:36;;;;;;;16.73;11.27;;;14.70;99.90;;;;;;5021429;28;20029;-74
2023/08/30 00:03:02;;;;;;;18.75;11.13;;;14.70;99.90;;;;;;5020889;28;20030;-74
2023/08/30 00:05:27;;;;;;;14.90;9.90;;;14.70;99.90;;;;;;5021518;28;20089;-73
2023/08/30 00:07:53;;;;;;;14.43;10.40;;;14.70;99.90;;;;;;5021178;28;20069;-72
2023/08/30 00:10:19;;;;;;;16.70;11.15;;;14.70;99.90;;;;;;5020016;28;20026;-72
2023/08/30 00:12:45;;;;;;;17.02;10.07;;;14.70;99.90;;;;;;5020116;28;20029;-72
2023/08/30 00:15:11;;;;;;;14.07;10.45;;;14.70;99.90;;;;;;5019853;28;20061;-76
2023/08/30 00:17:37;;;;;;;17.15;10.85;;;14.70;99.90;;;;;;5021581;28;20081;-74
2023/08/30 00:20:03;;;;;;;15.68;10.35;;;14.70;99.90;;;;;;5020983;28;20022;-75
2023/08/30 00:22:28;;;;;;;15.23;11.05;;;14.70;99.90;;;;;;5019748;28;20041;-73
2023/08/30 00:24:54;;;;;;;14.65;9.93;;;14.70;99.90;;;;;;5020792;28;20041;-75
2023/08/30 00:27:22;;;;;;;15.02;9.63;;;14.70;99.90;;;;;;5021469;28;20121;-73
2023/08/30 00:29:48;;;;;;;13.18;9.63;;;14.70;99.90;;;;;;5020587;28;20026;-75
2023/08/30 00:32:14;;;;;;;16.65;9.77;;;14.70;99.90;;;;;;5019563;28;20028;-75
2023/08/30 00:34:39;;;;;;;16.85;9.75;;;14.70;99.90;;;;;;5020944;28;20065;-75
2023/08/30 00:37:05;;;;;;;15.27;9.63;;;14.70;99.90;;;;;;5019865;28;20030;-74
2023/08/30 00:39:30;;;;;;;12.98;9.20;;;14.70;99.90;;;;;;5019950;28;20064;-73
2023/08/30 00:41:56;;;;;;;12.40;9.50;;;14.80;99.90;;;;;;5020444;28;20034;-73
2023/08/30 00:44:22;;;;;;;12.50;9.45;;;14.80;99.90;;;;;;5019373;28;20030;-75
2023/08/30 00:46:48;;;;;;;12.75;8.27;;;14.80;99.90;;;;;;5020021;28;20022;-75
2023/08/30 00:49:14;;;;;;;15.20;10.15;;;14.80;99.90;;;;;;5022230;28;20034;-74
2023/08/30 00:51:40;;;;;;;11.82;8.32;;;14.70;99.90;;;;;;5023192;28;20026;-73
2023/08/30 00:54:07;;;;;;;14.25;9.65;;;14.70;99.90;;;;;;5025090;28;20042;-74
2023/08/30 00:56:33;;;;;;;11.07;8.65;;;14.70;99.90;;;;;;5024673;28;20041;-75
2023/08/30 00:58:59;;;;;;;12.73;8.85;;;14.70;99.90;;;;;;5024111;28;20026;-72
2023/08/30 01:01:26;;;;;;;12.65;8.80;;;14.70;99.90;;;;;;5024391;28;20108;-72
2023/08/30 01:03:52;;;;;;;15.23;9.60;;;14.60;99.90;;;;;;5022894;28;20104;-74
2023/08/30 01:06:17;;;;;;;10.88;8.68;;;14.60;99.90;;;;;;5024186;28;20069;-75
2023/08/30 01:08:43;;;;;;;11.20;8.55;;;14.60;99.90;;;;;;5024149;28;20049;-74
2023/08/30 01:11:34;;;;;;;12.60;8.43;;;14.60;99.90;;;;;;5024850;28;20022;-73
2023/08/30 01:14:12;;;;;;;11.68;8.25;;;14.50;99.90;;;;;;5024512;28;20025;-75
2023/08/30 01:16:38;;;;;;;14.05;8.05;;;14.60;99.90;;;;;;5025284;28;20037;-75
2023/08/30 01:19:38;;;;;;;11.57;7.93;;;14.50;99.90;;;;;;5023603;28;20120;-74
2023/08/30 01:22:37;;;;;;;12.45;7.30;;;14.50;99.90;;;;;;5023303;28;20041;-74
2023/08/30 01:25:20;;;;;;;10.90;7.85;;;14.50;99.90;;;;;;5024806;28;20069;-75
2023/08/30 01:27:48;;;;;;;9.88;7.40;;;14.40;99.90;;;;;;5023325;28;20029;-75
2023/08/30 01:30:15;;;;;;;10.80;6.85;;;14.40;99.90;;;;;;5024544;28;20072;-75
2023/08/30 01:32:41;;;;;;;10.25;7.03;;;14.40;99.90;;;;;;5023098;28;20022;-75
2023/08/30 01:35:08;;;;;;;9.73;7.25;;;14.40;99.90;;;;;;5024601;28;20089;-75
2023/08/30 01:37:35;;;;;;;9.00;6.93;;;14.40;99.90;;;;;;5039813;28;20029;-75
2023/08/30 01:40:03;;;;;;;11.38;7.45;;;14.40;99.90;;;;;;5024373;28;20501;-74
2023/08/30 01:42:29;;;;;;;10.05;7.20;;;14.40;99.90;;;;;;5024114;28;20022;-74
2023/08/30 01:44:59;;;;;;;11.65;7.65;;;14.30;99.90;;;;;;5023053;28;20042;-73
2023/08/30 01:47:27;;;;;;;9.30;7.45;;;14.30;99.90;;;;;;5022448;28;20026;-75
2023/08/30 01:49:55;;;;;;;11.15;8.07;;;14.30;99.90;;;;;;5022236;28;20030;-73
2023/08/30 01:52:22;;;;;;;11.77;7.03;;;14.30;99.90;;;;;;5022780;28;20036;-73
2023/08/30 01:54:50;;;;;;;8.65;6.82;;;14.30;99.90;;;;;;5023831;28;20018;-74
2023/08/30 01:57:16;;;;;;;10.75;7.60;;;14.30;99.90;;;;;;5022850;28;20026;-73
2023/08/30 01:59:42;;;;;;;10.23;7.55;;;14.30;99.90;;;;;;5023116;28;20391;-74
2023/08/30 02:02:07;;;;;;;11.30;7.80;;;14.30;99.90;;;;;;5022782;28;20049;-75
2023/08/30 02:04:33;;;;;;;9.57;7.38;;;14.30;99.90;;;;;;5022999;28;20018;-74
2023/08/30 02:07:03;;;;;;;10.45;7.47;;;14.30;99.90;;;;;;5022515;28;20034;-73
2023/08/30 02:09:42;;;;;;;13.88;7.78;;;14.30;99.90;;;;;;5023916;28;20030;-73
2023/08/30 02:12:13;;;;;;;12.07;8.18;;;14.30;99.90;;;;;;5024004;28;20046;-74
2023/08/30 02:14:41;;;;;;;11.90;8.10;;;14.30;99.90;;;;;;5023962;28;20141;-75
2023/08/30 02:17:08;;;;;;;12.52;8.38;;;14.30;99.90;;;;;;5023964;28;20022;-74
2023/08/30 02:19:34;;;;;;;17.40;8.55;;;14.30;99.90;;;;;;5023489;28;20030;-73
2023/08/30 02:22:00;;;;;;;14.10;8.02;;;14.30;99.90;;;;;;5023101;28;20037;-74
2023/08/30 02:24:26;;;;;;;15.63;7.82;;;14.30;99.90;;;;;;5022432;28;20022;-74
2023/08/30 02:26:51;;;;;;;13.52;8.60;;;14.30;99.90;;;;;;5023619;28;20029;-75
2023/08/30 02:29:17;;;;;;;10.48;8.00;;;14.30;99.90;;;;;;5023380;28;20113;-74
2023/08/30 02:31:43;;;;;;;12.68;7.95;;;14.40;99.90;;;;;;5023579;28;20034;-74
2023/08/30 02:34:09;;;;;;;17.10;8.45;;;14.40;99.90;;;;;;5023175;28;20050;-73
2023/08/30 02:36:35;;;;;;;14.15;8.40;;;14.40;99.90;;;;;;5021905;28;20144;-75
2023/08/30 02:39:01;;;;;;;11.75;8.85;;;14.40;99.90;;;;;;5023727;28;20490;-75
2023/08/30 02:41:26;;;;;;;12.65;8.68;;;14.30;99.90;;;;;;5022050;28;20064;-73
2023/08/30 02:43:52;;;;;;;13.07;9.00;;;14.40;99.90;;;;;;5021677;28;20026;-74
2023/08/30 02:46:17;;;;;;;13.32;9.05;;;14.40;99.90;;;;;;5023422;28;20086;-74
2023/08/30 02:48:43;;;;;;;10.80;8.50;;;14.40;99.90;;;;;;5021810;28;20026;-74
2023/08/30 02:51:08;;;;;;;12.93;9.25;;;14.40;99.90;;;;;;5021645;28;20029;-74
2023/08/30 02:53:34;;;;;;;15.20;9.55;;;14.40;99.90;;;;;;5022142;28;20034;-74
2023/08/30 02:56:00;;;;;;;15.50;9.32;;;14.40;99.90;;;;;;5023113;28;20026;-74
2023/08/30 02:58:26;;;;;;;11.43;8.95;;;14.40;99.90;;;;;;5021638;28;20054;-73
2023/08/30 03:00:52;;;;;;;13.02;8.82;;;14.40;99.90;;;;;;5023249;28;20073;-73
2023/08/30 03:03:18;;;;;;;16.88;9.20;;;14.30;99.90;;;;;;5021516;28;20042;-73
2023/08/30 03:05:44;;;;;;;12.50;8.98;;;14.30;99.90;;;;;;5021613;28;20109;-73
2023/08/30 03:08:09;;;;;;;13.43;9.18;;;14.30;99.90;;;;;;5021828;28;20030;-74
2023/08/30 03:10:35;;;;;;;15.38;9.07;;;14.30;99.90;;;;;;5022604;28;20029;-75
2023/08/30 03:13:01;;;;;;;12.68;9.20;;;14.30;99.90;;;;;;5022895;28;20475;-76
2023/08/30 03:15:26;;;;;;;15.43;9.07;;;14.30;99.90;;;;;;5023086;28;20026;-75
2023/08/30 03:17:52;;;;;;;14.45;9.38;;;14.30;99.90;;;;;;5021215;28;20045;-74
2023/08/30 03:20:18;;;;;;;12.43;8.82;;;14.30;99.90;;;;;;5022261;28;20018;-73
2023/08/30 03:22:44;;;;;;;15.63;9.30;;;14.30;99.90;;;;;;5022639;28;20018;-74
2023/08/30 03:25:12;;;;;;;16.60;8.60;;;14.30;99.90;;;;;;5021164;28;20052;-74
2023/08/30 03:27:37;;;;;;;15.23;9.20;;;14.30;99.90;;;;;;5021471;28;20049;-76
2023/08/30 03:30:06;;;;;;;11.50;9.00;;;14.30;99.90;;;;;;5021429;28;20038;-75
2023/08/30 03:32:32;;;;;;;16.52;9.50;;;14.20;99.90;;;;;;5021672;28;20471;-75
2023/08/30 03:34:58;;;;;;;15.02;8.95;;;14.20;99.90;;;;;;5022329;28;20049;-74
2023/08/30 03:37:23;;;;;;;15.20;9.25;;;14.20;99.90;;;;;;5020609;28;20030;-75
2023/08/30 03:39:49;;;;;;;14.00;9.18;;;14.20;99.90;;;;;;5020848;28;20033;-75
2023/08/30 03:42:14;;;;;;;10.68;8.05;;;14.20;99.90;;;;;;5021846;28;20034;-74
2023/08/30 03:44:40;;;;;;;12.90;9.77;;;14.20;99.90;;;;;;5022046;28;20032;-74
2023/08/30 03:47:06;;;;;;;11.13;8.70;;;14.20;99.90;;;;;;5021152;28;20022;-73
2023/08/30 03:49:31;;;;;;;13.18;9.35;;;14.20;99.90;;;;;;5022191;28;20018;-75
2023/08/30 03:51:57;;;;;;;13.90;9.82;;;14.20;99.90;;;;;;5022074;28;20034;-75
2023/08/30 03:54:22;;;;;;;16.50;10.07;;;14.20;99.90;;;;;;5022305;28;20026;-75
2023/08/30 03:56:48;;;;;;;18.27;10.57;;;14.20;99.90;;;;;;5020760;28;20083;-75
2023/08/30 03:59:13;;;;;;;16.27;10.20;;;14.10;99.90;;;;;;5020749;28;20032;-75
2023/08/30 04:01:39;;;;;;;16.27;10.38;;;14.10;99.90;;;;;;5020764;28;20014;-76
2023/08/30 04:04:05;;;;;;;17.85;10.73;;;14.10;99.90;;;;;;5022026;28;20034;-75
2023/08/30 04:06:31;;;;;;;16.13;10.73;;;14.10;99.90;;;;;;5020107;28;20030;-73
2023/08/30 04:08:56;;;;;;;16.83;11.13;;;14.10;99.90;;;;;;5020956;28;20034;-75
2023/08/30 04:11:23;;;;;;;15.52;10.75;;;14.10;99.90;;;;;;5020642;28;20097;-74
2023/08/30 04:13:48;;;;;;;18.23;11.30;;;14.10;99.90;;;;;;5022091;28;20036;-74
2023/08/30 04:16:14;;;;;;;15.57;11.82;;;14.00;99.90;;;;;;5021484;28;20442;-75
2023/08/30 04:18:40;;;;;;;16.10;11.50;;;14.00;99.90;;;;;;5021558;28;20050;-73
2023/08/30 04:21:08;;;;;;;18.73;11.80;;;14.00;99.90;;;;;;5019992;28;20022;-74
2023/08/30 04:23:34;;;;;;;17.35;11.20;;;14.00;99.90;;;;;;5023629;28;20410;-73
2023/08/30 04:26:00;;;;;;;16.40;11.52;;;14.00;99.90;;;;;;5024389;28;20184;-75
2023/08/30 04:28:26;;;;;;;17.88;11.77;;;14.00;99.90;;;;;;5025790;28;20029;-75
2023/08/30 04:30:56;;;;;;;17.98;12.25;;;14.00;99.90;;;;;;5025779;28;20037;-74
2023/08/30 04:33:25;;;;;;;24.08;13.93;;;14.00;99.90;;;;;;5023898;28;20061;-75
2023/08/30 04:35:54;;;;;;;18.73;12.48;;;14.00;99.90;;;;;;5022871;28;20038;-74
2023/08/30 04:38:21;;;;;;;19.77;13.13;;;13.90;99.90;;;;;;5024869;28;20105;-72
2023/08/30 04:40:47;;;;;;;21.30;12.85;;;13.90;99.90;;;;;;5023459;28;20029;-76
2023/08/30 04:43:13;;;;;;;19.27;12.75;;;13.90;99.90;;;;;;5025750;28;20034;-73
2023/08/30 04:45:39;;;;;;;18.58;13.45;;;13.90;99.90;;;;;;5021679;28;20076;-74
2023/08/30 04:48:05;;;;;;;19.90;13.10;;;13.90;99.90;;;;;;5023462;28;20129;-73
2023/08/30 04:50:31;;;;;;;20.83;14.27;;;13.90;99.90;;;;;;5025132;28;20034;-73
2023/08/30 04:52:56;;;;;;;19.23;13.27;;;13.90;99.90;;;;;;5023715;28;20121;-73
2023/08/30 04:55:24;;;;;;;23.85;13.98;;;13.90;99.90;;;;;;5024917;28;20026;-73
2023/08/30 04:57:50;;;;;;;22.58;14.57;;;13.90;99.90;;;;;;5024040;28;20026;-73
2023/08/30 05:00:16;;;;;;;21.92;14.93;;;13.90;99.90;;;;;;5023455;28;20161;-73
2023/08/30 05:02:43;;;;;;;25.10;14.27;;;13.90;99.90;;;;;;5024777;28;20541;-73
2023/08/30 05:05:10;;;;;;;22.63;14.60;;;13.90;99.90;;;;;;5025185;28;20042;-73
2023/08/30 05:07:35;;;;;;;24.08;13.85;;;13.90;99.90;;;;;;5023728;28;20049;-72
2023/08/30 05:10:02;;;;;;;25.73;14.73;;;13.90;99.90;;;;;;5024977;28;20030;-72
2023/08/30 05:12:28;;;;;;;34.75;15.10;;;13.80;99.90;;;;;;5023712;28;20038;-73
2023/08/30 05:14:54;;;;;;;27.02;15.07;;;13.90;99.90;;;;;;5023991;28;20030;-73
2023/08/30 05:17:19;;;;;;;34.03;16.23;;;13.80;99.90;;;;;;5023846;28;20394;-71
2023/08/30 05:19:45;;;;;;;27.25;16.10;;;13.80;99.90;;;;;;5024679;28;20028;-73
2023/08/30 05:22:11;;;;;;;25.63;15.75;;;13.80;99.90;;;;;;5023105;28;20026;-72
2023/08/30 05:24:37;;;;;;;26.60;16.50;;;13.80;99.90;;;;;;5023358;28;20080;-73
2023/08/30 05:27:03;;;;;;;28.90;16.75;;;13.80;99.90;;;;;;5024511;28;20065;-73
2023/08/30 05:29:28;;;;;;;26.77;17.55;;;13.80;99.90;;;;;;5021917;28;20060;-73
2023/08/30 05:31:54;;;;;;;24.17;16.13;;;13.80;99.90;;;;;;5030854;28;20033;-72
2023/08/30 05:34:19;;;;;;;29.42;16.92;;;13.70;99.90;;;;;;5023766;28;20534;-71
2023/08/30 05:36:45;;;;;;;31.63;16.60;;;13.70;99.90;;;;;;5022625;28;20017;-72
2023/08/30 05:39:14;;;;;;;28.05;17.42;;;13.70;99.90;;;;;;5024885;28;20029;-75
2023/08/30 05:41:39;;;;;;;25.63;17.33;;;13.70;99.90;;;;;;5023031;28;20068;-75
2023/08/30 05:44:06;;;;;;;31.30;17.92;;;13.70;99.90;;;;;;5023119;28;20029;-74
2023/08/30 05:46:31;;;;;;;28.27;17.55;;;13.70;99.90;;;;;;5023618;28;20041;-73
2023/08/30 05:48:57;;;;;;;27.13;17.85;;;13.70;99.90;;;;;;5023032;28;20541;-72
2023/08/30 05:51:22;;;;;;;33.38;19.75;;;13.70;99.90;;;;;;5022259;28;20437;-73
2023/08/30 05:53:48;;;;;;;32.55;19.58;;;13.80;99.90;;;;;;5024405;28;20073;-75
2023/08/30 05:56:14;;;;;;;32.25;19.63;;;13.80;99.90;;;;;;5022837;28;20090;-72
2023/08/30 05:58:40;;;;;;;30.02;18.23;;;13.80;99.90;;;;;;5023932;28;20044;-73
2023/08/30 06:01:07;;;;;;;30.85;18.58;;;13.80;99.90;;;;;;5023685;28;20026;-74
2023/08/30 06:03:33;;;;;;;34.75;19.05;;;13.80;99.90;;;;;;5024089;28;20036;-73
2023/08/30 06:05:58;;;;;;;29.27;19.42;;;13.80;99.90;;;;;;5024031;28;20038;-73
2023/08/30 06:08:24;;;;;;;30.02;18.75;;;13.80;99.90;;;;;;5024015;28;20030;-73
2023/08/30 06:10:50;;;;;;;27.35;19.33;;;13.80;99.90;;;;;;5022424;28;20030;-73
2023/08/30 06:13:15;;;;;;;29.60;19.05;;;13.80;99.90;;;;;;5023762;28;20030;-74
2023/08/30 06:15:41;;;;;;;30.73;19.48;;;13.90;99.90;;;;;;5024055;28;20111;-74
2023/08/30 06:18:07;;;;;;;29.02;19.90;;;13.90;99.90;;;;;;5023726;28;20090;-72
2023/08/30 06:20:32;;;;;;;29.30;20.20;;;13.90;99.90;;;;;;5023413;28;20041;-73
2023/08/30 06:22:59;;;;;;;34.88;21.10;;;13.90;99.90;;;;;;5023126;28;20026;-73
2023/08/30 06:25:24;;;;;;;31.70;19.73;;;13.90;99.90;;;;;;5022921;28;20046;-74
2023/08/30 06:27:58;;;;;;;29.95;20.05;;;13.90;99.90;;;;;;5023631;28;20026;-73
2023/08/30 06:30:29;;;;;;;28.70;19.75;;;13.90;99.90;;;;;;5023623;28;20093;-71
2023/08/30 06:32:55;;;;;;;30.45;20.13;;;13.90;99.90;;;;;;5023017;28;20576;-74
2023/08/30 06:35:21;;;;;;;29.95;19.50;;;14.00;99.90;;;;;;5023447;28;20049;-73
2023/08/30 06:37:46;;;;;;;28.75;20.38;;;14.00;99.90;;;;;;5021423;28;20033;-72
2023/08/30 06:40:12;;;;;;;33.17;19.77;;;14.00;99.90;;;;;;5022267;28;20037;-74
2023/08/30 06:42:38;;;;;;;32.83;20.10;;;14.00;99.90;;;;;;5022044;28;20065;-73
2023/08/30 06:45:04;;;;;;;31.02;20.23;;;14.00;99.90;;;;;;5023265;28;20063;-73
2023/08/30 06:47:30;;;;;;;31.30;20.88;;;14.10;99.90;;;;;;5022565;28;20033;-73
2023/08/30 06:49:57;;;;;;;31.75;20.77;;;14.10;99.90;;;;;;5023324;28;20025;-71
2023/08/30 06:52:22;;;;;;;30.10;20.13;;;14.20;99.90;;;;;;5020961;28;20026;-73
2023/08/30 06:54:48;;;;;;;32.22;21.02;;;14.20;99.90;;;;;;5023026;28;20052;-73
2023/08/30 06:57:14;;;;;;;37.00;21.55;;;14.20;99.90;;;;;;5023100;28;20057;-72
2023/08/30 06:59:40;;;;;;;35.20;20.88;;;14.20;99.90;;;;;;5023275;28;20034;-72
2023/08/30 07:02:06;;;;;;;30.42;21.13;;;14.30;99.90;;;;;;5022316;28;20449;-73
2023/08/30 07:04:31;;;;;;;33.50;21.38;;;14.30;99.90;;;;;;5021810;28;20025;-71
2023/08/30 07:06:57;;;;;;;27.17;19.58;;;14.30;99.90;;;;;;5022593;28;20080;-72
2023/08/30 07:09:28;;;;;;;32.63;21.52;;;14.40;99.90;;;;;;5022427;28;20089;-72
2023/08/30 07:11:56;;;;;;;35.00;21.40;;;14.40;99.90;;;;;;5021257;28;20083;-72
2023/08/30 07:14:22;;;;;;;30.73;21.75;;;14.50;99.90;;;;;;5020477;28;20034;-73
2023/08/30 07:16:49;;;;;;;34.67;22.63;;;14.50;99.90;;;;;;5020909;28;20033;-73
2023/08/30 07:19:16;;;;;;;34.17;21.83;;;14.50;99.90;;;;;;5019931;28;20030;-73
2023/08/30 07:21:42;;;;;;;35.00;22.05;;;14.60;99.90;;;;;;5019711;28;20088;-74
2023/08/30 07:24:08;;;;;;;34.95;21.45;;;14.60;99.90;;;;;;5019808;28;20056;-73
2023/08/30 07:26:35;;;;;;;32.25;22.15;;;14.70;99.90;;;;;;5020814;28;20077;-74
2023/08/30 07:29:00;;;;;;;32.72;22.35;;;14.80;99.90;;;;;;5021864;28;20442;-73
2023/08/30 07:31:26;;;;;;;35.10;21.95;;;14.80;99.90;;;;;;5021588;28;20030;-73
2023/08/30 07:33:51;;;;;;;36.05;21.83;;;14.90;99.90;;;;;;5020837;28;20113;-72
2023/08/30 07:36:18;;;;;;;35.25;21.58;;;14.90;99.90;;;;;;5020524;28;20133;-72
2023/08/30 07:38:43;;;;;;;34.85;22.45;;;14.90;99.90;;;;;;5019392;28;20033;-73
2023/08/30 07:41:10;;;;;;;35.40;21.42;;;15.00;99.90;;;;;;5020457;28;20025;-72
2023/08/30 07:43:35;;;;;;;36.03;21.80;;;15.00;99.90;;;;;;5022324;28;20052;-72
2023/08/30 07:46:01;;;;;;;34.03;20.90;;;15.00;99.90;;;;;;5021960;28;20046;-73
2023/08/30 07:48:27;;;;;;;34.15;20.90;;;15.00;99.90;;;;;;5020714;28;20550;-74
2023/08/30 07:50:53;;;;;;;36.65;21.27;;;15.00;99.90;;;;;;5018886;28;20034;-72
2023/08/30 07:53:18;;;;;;;37.25;21.90;;;15.10;99.90;;;;;;5021684;28;20085;-75
2023/08/30 07:55:50;;;;;;;32.05;19.15;;;15.20;99.90;;;;;;5019940;28;20034;-73
2023/08/30 07:58:19;;;;;;;31.35;19.85;;;15.30;99.90;;;;;;5019707;28;20051;-75
2023/08/30 08:00:44;;;;;;;29.98;19.58;;;15.40;99.90;;;;;;5016584;28;20029;-73
2023/08/30 08:03:10;;;;;;;31.38;17.23;;;15.50;99.90;;;;;;5015699;28;20030;-73
2023/08/30 08:05:37;;;;;;;25.95;17.80;;;15.60;99.90;;;;;;5015954;28;20050;-75
2023/08/30 08:08:03;;;;;;;29.00;17.10;;;15.70;99.90;;;;;;5019671;28;20026;-73
2023/08/30 08:10:34;;;;;;;23.83;14.55;;;15.80;99.90;;;;;;5036543;28;20021;-72
2023/08/30 08:13:00;;;;;;;23.83;15.23;;;15.80;99.90;;;;;;5018820;28;20030;-71
2023/08/30 08:15:26;;;;;;;20.50;14.07;;;15.90;99.90;;;;;;5019039;28;20400;-69
2023/08/30 08:17:51;;;;;;;21.95;14.60;;;15.90;99.90;;;;;;5021103;28;20022;-73
2023/08/30 08:20:17;;;;;;;24.55;14.25;;;15.90;99.90;;;;;;5017929;28;20030;-73
2023/08/30 08:22:42;;;;;;;24.58;14.60;;;16.00;99.90;;;;;;5017436;28;20735;-73
2023/08/30 08:25:09;;;;;;;22.50;14.07;;;16.10;99.90;;;;;;5020052;28;20060;-73
2023/08/30 08:27:36;;;;;;;25.58;14.07;;;16.10;99.90;;;;;;5022048;28;20080;-74
2023/08/30 08:30:03;;;;;;;24.20;14.57;;;16.20;99.90;;;;;;5021705;28;20049;-73
2023/08/30 08:32:30;;;;;;;22.55;13.75;;;16.40;99.90;;;;;;5020407;28;20085;-70
2023/08/30 08:34:56;;;;;;;20.70;13.48;;;16.40;99.90;;;;;;5027561;28;20065;-75
2023/08/30 08:37:22;;;;;;;21.25;13.07;;;16.60;99.90;;;;;;5021233;28;20022;-73
2023/08/30 08:39:50;;;;;;;23.58;13.10;;;16.70;99.90;;;;;;5018991;28;20034;-73
2023/08/30 08:42:18;;;;;;;20.90;12.90;;;16.80;99.90;;;;;;5023784;28;20116;-74
2023/08/30 08:44:45;;;;;;;20.63;12.30;;;16.90;99.90;;;;;;5016653;28;20040;-73
2023/08/30 08:47:11;;;;;;;21.52;13.07;;;17.00;99.90;;;;;;5016119;28;20025;-72
2023/08/30 08:49:38;;;;;;;21.42;12.45;;;17.10;99.90;;;;;;5019549;28;20034;-71
2023/08/30 08:52:04;;;;;;;18.52;11.70;;;17.20;99.90;;;;;;5019772;28;20070;-71
2023/08/30 08:54:30;;;;;;;17.58;11.20;;;17.20;99.90;;;;;;5019669;28;20042;-73
2023/08/30 08:56:57;;;;;;;26.35;11.65;;;17.30;99.90;;;;;;5021185;28;20038;-73
2023/08/30 08:59:24;;;;;;;21.83;11.70;;;17.40;99.90;;;;;;5019884;28;20022;-71
2023/08/30 09:01:50;;;;;;;18.70;10.65;;;17.40;99.90;;;;;;5020869;28;20034;-71
2023/08/30 09:04:16;;;;;;;23.92;11.23;;;17.40;99.90;;;;;;5019882;28;20072;-70
2023/08/30 09:06:43;;;;;;;14.55;9.68;;;17.40;99.90;;;;;;5020099;28;20116;-72
2023/08/30 09:09:09;;;;;;;18.48;9.95;;;17.50;99.90;;;;;;5021879;28;20049;-71
2023/08/30 09:11:35;;;;;;;22.25;10.20;;;17.50;99.90;;;;;;5023555;28;20053;-72
2023/08/30 09:14:01;;;;;;;14.70;8.73;;;17.60;99.90;;;;;;5024951;28;20030;-71
2023/08/30 09:16:27;;;;;;;18.23;10.43;;;17.60;99.90;;;;;;5024183;28;20140;-72
2023/08/30 09:19:00;;;;;;;14.73;9.65;;;17.60;99.90;;;;;;5022651;28;20534;-71
2023/08/30 09:21:26;;;;;;;15.23;9.75;;;17.70;99.90;;;;;;5023383;28;20053;-75
2023/08/30 09:24:05;;;;;;;14.95;9.95;;;17.80;99.90;;;;;;5021287;28;20049;-69
2023/08/30 09:26:33;;;;;;;17.17;9.35;;;17.90;99.90;;;;;;5020648;28;20038;-71
2023/08/30 09:29:07;;;;;;;15.80;9.27;;;18.00;99.90;;;;;;5024209;28;20033;-72
2023/08/30 09:31:34;;;;;;;16.65;9.68;;;18.00;99.90;;;;;;5021266;28;20029;-73
2023/08/30 09:34:01;;;;;;;19.08;9.95;;;18.10;99.90;;;;;;5021748;28;20054;-72
2023/08/30 09:36:32;;;;;;;14.15;9.43;;;18.10;99.90;;;;;;5022193;28;20041;-71
2023/08/30 09:38:58;;;;;;;14.73;9.05;;;18.20;99.90;;;;;;5020827;28;20034;-71
2023/08/30 09:41:25;;;;;;;17.48;9.45;;;18.20;99.90;;;;;;5021000;28;20803;-72
2023/08/30 09:43:50;;;;;;;16.77;9.70;;;18.20;99.90;;;;;;5020932;28;20609;-72
2023/08/30 09:46:17;;;;;;;17.70;9.95;;;18.30;99.90;;;;;;5020448;28;20041;-71
2023/08/30 09:48:43;;;;;;;16.95;10.00;;;18.30;99.90;;;;;;5022589;28;20026;-73
2023/08/30 09:51:11;;;;;;;15.65;9.95;;;18.40;99.90;;;;;;5024113;28;20060;-72
2023/08/30 09:53:43;;;;;;;15.95;9.10;;;18.40;99.90;;;;;;5023834;28;20236;-75
2023/08/30 09:56:13;;;;;;;13.77;9.00;;;18.50;99.90;;;;;;5021899;28;20136;-71
2023/08/30 09:58:59;;;;;;;13.65;8.18;;;18.60;99.90;;;;;;5021212;28;20042;-73
2023/08/30 10:01:27;;;;;;;12.82;7.25;;;18.70;99.90;;;;;;5021697;28;20030;-73
2023/08/30 10:03:54;;;;;;;17.30;8.52;;;18.70;99.90;;;;;;5020606;28;20018;-73
2023/08/30 10:06:21;;;;;;;17.63;9.10;;;18.80;99.90;;;;;;5022195;28;20069;-72
2023/08/30 10:08:51;;;;;;;19.92;8.82;;;18.80;99.90;;;;;;5022414;28;20030;-72
2023/08/30 10:11:18;;;;;;;14.68;8.27;;;18.80;99.90;;;;;;5020354;28;20088;-72
2023/08/30 10:13:45;;;;;;;14.43;8.88;;;18.70;99.90;;;;;;5020490;28;20057;-71
2023/08/30 10:16:20;;;;;;;15.85;8.00;;;18.70;99.90;;;;;;5019519;28;20041;-72
2023/08/30 10:18:54;;;;;;;13.65;8.55;;;18.80;99.90;;;;;;5017423;28;20049;-72
2023/08/30 10:21:20;;;;;;;;;;;18.90;99.90;;;;;;5020157;28;20042;-72
2023/08/30 10:23:49;;;;;;;13.98;8.57;;;18.90;99.90;;;;;;5022651;28;19928;-73
2023/08/30 10:26:17;;;;;;;14.75;8.65;;;18.80;99.90;;;;;;5018172;28;20096;-73
2023/08/30 10:28:45;;;;;;;13.57;8.80;;;18.80;99.90;;;;;;5021541;28;20484;-73
2023/08/30 10:31:13;;;;;;;16.60;8.80;;;18.80;99.90;;;;;;5021740;28;20022;-74
2023/08/30 10:33:53;;;;;;;13.68;8.52;;;18.80;99.90;;;;;;5021926;28;20064;-74
2023/08/30 10:36:26;;;;;;;14.50;8.45;;;18.80;99.90;;;;;;5021760;28;20021;-70
2023/08/30 10:38:53;;;;;;;15.02;9.68;;;18.90;99.90;;;;;;5020404;28;20034;-71
2023/08/30 10:41:22;;;;;;;13.20;8.75;;;18.90;99.90;;;;;;5021771;28;20014;-70
2023/08/30 10:43:51;;;;;;;15.73;8.68;;;19.10;99.90;;;;;;5022696;28;20025;-72
2023/08/30 10:46:17;;;;;;;16.58;9.32;;;19.30;99.90;;;;;;5022236;28;20527;-74
2023/08/30 10:48:43;;;;;;;12.80;7.70;;;19.30;99.90;;;;;;5022911;28;20081;-73
2023/08/30 10:51:35;;;;;;;13.20;8.38;;;19.30;99.90;;;;;;5021736;28;20030;-73
2023/08/30 10:54:00;;;;;;;13.45;8.10;;;19.30;99.90;;;;;;5022576;28;20042;-71
2023/08/30 10:56:30;;;;;;;14.27;7.93;;;19.20;99.90;;;;;;5022711;28;20029;-73
2023/08/30 10:58:56;;;;;;;13.77;8.25;;;19.20;99.90;;;;;;5020686;28;20026;-73
2023/08/30 11:01:23;;;;;;;14.10;8.43;;;19.20;99.90;;;;;;5021266;28;20018;-73
2023/08/30 11:03:50;;;;;;;13.00;8.40;;;19.10;99.90;;;;;;5022748;28;20094;-73
2023/08/30 11:06:17;;;;;;;12.57;8.15;;;19.00;99.90;;;;;;5022984;28;20030;-70
2023/08/30 11:08:43;;;;;;;15.00;8.90;;;19.00;99.90;;;;;;5021985;28;20022;-73
2023/08/30 11:11:14;;;;;;;16.40;9.13;;;18.90;99.90;;;;;;5022361;28;20033;-71
2023/08/30 11:13:40;;;;;;;14.25;9.10;;;18.80;99.90;;;;;;5021252;28;20053;-74
2023/08/30 11:16:06;;;;;;;18.27;9.13;;;18.80;99.90;;;;;;5022467;28;20022;-69
2023/08/30 11:18:39;;;;;;;14.10;8.55;;;18.70;99.90;;;;;;5022732;28;20049;-74
2023/08/30 11:21:05;;;;;;;19.23;9.63;;;18.70;99.90;;;;;;5022786;28;20034;-73
2023/08/30 11:23:31;;;;;;;23.95;10.52;;;18.70;99.90;;;;;;5020443;28;20101;-71
2023/08/30 11:25:57;;;;;;;17.90;9.93;;;18.70;99.90;;;;;;5022319;28;20083;-69
2023/08/30 11:28:24;;;;;;;17.70;10.65;;;18.70;99.90;;;;;;5021849;28;20034;-73
2023/08/30 11:30:50;;;;;;;18.30;10.45;;;18.60;99.90;;;;;;5022000;28;20050;-73
2023/08/30 11:33:21;;;;;;;22.05;11.18;;;18.60;99.90;;;;;;5019166;28;20025;-73
2023/08/30 11:35:49;;;;;;;21.90;11.68;;;18.60;99.90;;;;;;5022269;28;20131;-72
2023/08/30 11:38:15;;;;;;;22.15;12.05;;;18.60;99.90;;;;;;5021637;28;20044;-70
2023/08/30 11:40:41;;;;;;;18.67;12.30;;;18.50;99.90;;;;;;5022634;28;20033;-71
2023/08/30 11:43:07;;;;;;;21.70;11.73;;;18.50;99.90;;;;;;5022437;28;20026;-75
2023/08/30 11:45:34;;;;;;;19.40;11.88;;;18.50;99.90;;;;;;5019934;28;21015;-70
2023/08/30 11:48:00;;;;;;;20.33;12.27;;;18.50;99.90;;;;;;5021979;28;20036;-73
2023/08/30 11:50:27;;;;;;;19.17;12.43;;;18.50;99.90;;;;;;5021550;28;20496;-73
2023/08/30 11:52:53;;;;;;;22.33;14.13;;;18.50;99.90;;;;;;5021766;28;20081;-73
2023/08/30 11:55:21;;;;;;;24.90;13.63;;;18.40;99.90;;;;;;5022161;28;20025;-72
2023/08/30 11:57:50;;;;;;;23.10;13.85;;;18.40;99.90;;;;;;5020305;28;20487;-70
2023/08/30 12:00:18;;;;;;;22.00;15.23;;;18.30;99.90;;;;;;5021490;28;20424;-72
2023/08/30 12:02:45;;;;;;;23.17;15.60;;;18.20;99.90;;;;;;5020757;28;20041;-73
2023/08/30 12:05:12;;;;;;;23.27;15.30;;;18.10;99.90;;;;;;5021548;28;20065;-72
2023/08/30 12:07:39;;;;;;;24.70;15.23;;;18.10;99.90;;;;;;5021408;28;20081;-72
2023/08/30 12:10:09;;;;;;;26.33;16.25;;;18.10;99.90;;;;;;5022035;28;20090;-73
2023/08/30 12:12:37;;;;;;;25.77;16.05;;;18.00;99.90;;;;;;5021536;28;20057;-71
2023/08/30 12:15:14;;;;;;;27.40;16.15;;;18.10;99.90;;;;;;5020825;28;20053;-74
2023/08/30 12:17:41;;;;;;;22.50;15.35;;;18.10;99.90;;;;;;5021861;28;20066;-71
2023/08/30 12:20:14;;;;;;;24.70;16.00;;;18.10;99.90;;;;;;5021478;28;20018;-74
2023/08/30 12:22:40;;;;;;;27.70;16.02;;;18.20;99.90;;;;;;5020631;28;20101;-72
2023/08/30 12:25:23;;;;;;;24.00;15.32;;;18.20;99.90;;;;;;5021700;28;20103;-70
2023/08/30 12:27:49;;;;;;;22.92;15.38;;;18.20;99.90;;;;;;5021311;28;20033;-73
2023/08/30 12:30:16;;;;;;;22.60;15.88;;;18.20;99.90;;;;;;5021413;28;20018;-74